Time;durP1;ratioP1;P1;durP2;ratioP2;P2;SDS_P1;SDS_P2;PMS_P1;PMS_P2;Temp;Humidity;BMP_temperature;BMP_pressure;BME280_temperature;BME280_humidity;BME280_pressure;Samples;Min_cycle;Max_cycle;Signal;HPM_P1;HPM_P2
2023/04/06 00:00:36;;;;;;;;;;;-1.80;99.90;;;;;;8236827;28;19954;-80
2023/04/06 00:04:37;;;;;;;;;;;-1.70;99.90;;;;;;8242304;28;19933;-79
2023/04/06 00:08:37;;;;;;;;;;;-1.40;99.90;;;;;;8244333;28;20362;-79
2023/04/06 00:12:38;;;;;;;;;;;-1.30;99.90;;;;;;8241595;28;19912;-79
2023/04/06 00:16:38;;;;;;;;;;;-1.60;99.90;;;;;;8221425;28;19913;-80
2023/04/06 00:20:38;;;;;;;;;;;-2.00;99.90;;;;;;8235080;28;19911;-81
2023/04/06 00:24:39;;;;;;;;;;;-2.30;99.90;;;;;;8238999;28;19921;-79
2023/04/06 00:28:39;;;;;;;;;;;-2.60;99.90;;;;;;8238676;28;19996;-80
2023/04/06 00:32:40;;;;;;;;;;;-2.70;99.90;;;;;;8249525;28;19992;-80
2023/04/06 00:36:40;;;;;;;;;;;-2.40;99.90;;;;;;8253011;28;20434;-80
2023/04/06 00:40:41;;;;;;;;;;;-2.00;99.90;;;;;;8239779;28;19931;-79
2023/04/06 00:44:41;;;;;;;;;;;-2.00;99.90;;;;;;8255618;28;19909;-80
2023/04/06 00:48:42;;;;;;;;;;;-2.30;99.90;;;;;;8233297;28;19918;-79
2023/04/06 00:52:42;;;;;;;;;;;-2.30;99.90;;;;;;8232962;28;19917;-79
2023/04/06 00:56:43;;;;;;;;;;;-2.60;99.90;;;;;;8240217;28;20008;-79
2023/04/06 01:00:44;;;;;;;;;;;-2.90;99.90;;;;;;8243900;28;19906;-79
2023/04/06 01:04:44;;;;;;;;;;;-3.00;99.90;;;;;;8240641;28;19906;-79
2023/04/06 01:08:45;;;;;;;;;;;-3.00;99.90;;;;;;8231207;28;20418;-78
2023/04/06 01:12:45;;;;;;;;;;;-3.10;99.90;;;;;;8246671;28;19913;-78
2023/04/06 01:16:46;;;;;;;;;;;-3.10;99.90;;;;;;8241800;28;19914;-79
2023/04/06 01:20:46;;;;;;;;;;;-3.20;99.90;;;;;;8242594;28;19913;-78
2023/04/06 01:24:47;;;;;;;;;;;-3.40;99.90;;;;;;8244749;28;19945;-79
2023/04/06 01:28:47;;;;;;;;;;;-3.50;99.90;;;;;;8244742;28;19916;-79
2023/04/06 01:32:48;;;;;;;;;;;-3.70;99.90;;;;;;8245980;28;19906;-79
2023/04/06 01:36:48;;;;;;;;;;;-3.80;99.90;;;;;;8248176;28;19914;-79
2023/04/06 01:40:48;;;;;;;;;;;-3.90;99.90;;;;;;8231411;28;19909;-80
2023/04/06 01:44:49;;;;;;;;;;;-3.80;99.90;;;;;;8233947;28;20001;-79
2023/04/06 01:48:50;;;;;;;;;;;-3.80;99.90;;;;;;8232139;28;19957;-79
2023/04/06 01:52:50;;;;;;;;;;;-3.80;99.90;;;;;;8239657;28;19910;-78
2023/04/06 01:56:52;;;;;;;;;;;-3.80;99.90;;;;;;8259643;28;19910;-80
2023/04/06 02:00:52;;;;;;;;;;;-3.90;99.90;;;;;;8243529;28;20045;-80
2023/04/06 02:04:53;;;;;;;;;;;-4.10;99.90;;;;;;8240609;28;19922;-79
2023/04/06 02:08:53;;;;;;;;;;;-4.00;99.90;;;;;;8245982;28;19906;-79
2023/04/06 02:12:54;;;;;;;;;;;-4.10;99.90;;;;;;8240261;28;19997;-79
2023/04/06 02:16:54;;;;;;;;;;;-4.20;99.90;;;;;;8265968;28;19956;-79
2023/04/06 02:20:55;;;;;;;;;;;-4.10;99.90;;;;;;8246444;28;19906;-79
2023/04/06 02:24:56;;;;;;;;;;;-4.10;99.90;;;;;;8244676;28;19997;-78
2023/04/06 02:28:56;;;;;;;;;;;-4.00;99.90;;;;;;8248808;28;19906;-78
2023/04/06 02:32:56;;;;;;;;;;;-4.10;99.90;;;;;;8232616;28;19906;-79
2023/04/06 02:36:57;;;;;;;;;;;-4.20;99.90;;;;;;8244765;28;19928;-79
2023/04/06 02:40:57;;;;;;;;;;;-4.20;99.90;;;;;;8259691;28;19996;-79
2023/04/06 02:44:58;;;;;;;;;;;-4.30;99.90;;;;;;8245939;28;19914;-78
2023/04/06 02:49:00;;;;;;;;;;;-4.30;99.90;;;;;;8246551;28;20290;-80
2023/04/06 02:53:00;;;;;;;;;;;-4.20;99.90;;;;;;8242160;28;19906;-78
2023/04/06 02:57:01;;;;;;;;;;;-3.90;99.90;;;;;;8231439;28;19910;-79
2023/04/06 03:01:01;;;;;;;;;;;-3.90;99.90;;;;;;8258941;28;19910;-78
2023/04/06 03:05:03;;;;;;;;;;;-3.80;99.90;;;;;;8242571;28;20025;-79
2023/04/06 03:09:03;;;;;;;;;;;-4.10;99.90;;;;;;8241372;28;20192;-78
2023/04/06 03:13:04;;;;;;;;;;;-4.10;99.90;;;;;;8244969;28;19906;-79
2023/04/06 03:17:04;;;;;;;;;;;-4.00;99.90;;;;;;8255221;28;19961;-78
2023/04/06 03:21:05;;;;;;;;;;;-4.00;99.90;;;;;;8256860;28;19913;-79
2023/04/06 03:25:05;;;;;;;;;;;-4.30;99.90;;;;;;8244515;28;20417;-79
2023/04/06 03:29:06;;;;;;;;;;;-4.20;99.90;;;;;;8250289;28;19906;-79
2023/04/06 03:33:06;;;;;;;;;;;-4.10;99.90;;;;;;8242708;28;20351;-80
2023/04/06 03:37:06;;;;;;;;;;;-4.10;99.90;;;;;;8261760;28;19937;-79
2023/04/06 03:41:07;;;;;;;;;;;-4.20;99.90;;;;;;8251284;28;20004;-79
2023/04/06 03:45:08;;;;;;;;;;;-4.00;99.90;;;;;;8239162;28;19917;-79
2023/04/06 03:49:08;;;;;;;;;;;-4.00;99.90;;;;;;8232422;28;19933;-78
2023/04/06 03:53:09;;;;;;;;;;;-4.20;99.90;;;;;;8232133;28;19910;-79
2023/04/06 03:57:09;;;;;;;;;;;-4.30;99.90;;;;;;8240608;28;19942;-77
2023/04/06 04:01:10;;;;;;;;;;;-4.10;99.90;;;;;;8249211;28;19959;-79
2023/04/06 04:05:10;;;;;;;;;;;-4.00;99.90;;;;;;8249371;28;20338;-79
2023/04/06 04:09:10;;;;;;;;;;;-4.00;99.90;;;;;;8235937;28;19910;-78
2023/04/06 04:13:11;;;;;;;;;;;-4.10;99.90;;;;;;8234632;28;19918;-79
2023/04/06 04:17:11;;;;;;;;;;;-4.20;99.90;;;;;;8235669;28;19914;-79
2023/04/06 04:21:12;;;;;;;;;;;-4.40;99.90;;;;;;8250269;28;19981;-77
2023/04/06 04:25:13;;;;;;;;;;;-4.40;99.90;;;;;;8241515;28;20302;-78
2023/04/06 04:29:13;;;;;;;;;;;-4.50;99.90;;;;;;8235194;28;19960;-80
2023/04/06 04:33:14;;;;;;;;;;;-4.60;99.90;;;;;;8217566;28;20311;-78
2023/04/06 04:37:14;;;;;;;;;;;-4.50;99.90;;;;;;8207511;28;20438;-79
2023/04/06 04:41:15;;;;;;;;;;;-4.50;99.90;;;;;;8221596;28;19910;-79
2023/04/06 04:45:15;;;;;;;;;;;-4.40;99.90;;;;;;8223223;28;19916;-78
2023/04/06 04:49:16;;;;;;;;;;;-4.30;99.90;;;;;;8214437;28;19922;-78
2023/04/06 04:53:16;;;;;;;;;;;-4.30;99.90;;;;;;8215945;28;20378;-79
2023/04/06 04:57:17;;;;;;;;;;;-4.30;99.90;;;;;;8212151;28;19914;-79
2023/04/06 05:01:17;;;;;;;;;;;-4.30;99.90;;;;;;8217796;28;19906;-78
2023/04/06 05:05:17;;;;;;;;;;;-4.10;99.90;;;;;;8216405;28;19910;-79
2023/04/06 05:09:18;;;;;;;;;;;-3.90;99.90;;;;;;8217576;28;19997;-79
2023/04/06 05:13:19;;;;;;;;;;;-3.70;99.90;;;;;;8213842;28;19917;-78
2023/04/06 05:17:20;;;;;;;;;;;-3.40;99.90;;;;;;8216276;28;19994;-78
2023/04/06 05:21:20;;;;;;;;;;;-3.30;99.90;;;;;;8215666;28;19961;-79
2023/04/06 05:25:21;;;;;;;;;;;-3.00;99.90;;;;;;8210966;28;19926;-79
2023/04/06 05:29:21;;;;;;;;;;;-3.00;99.90;;;;;;8209879;28;19918;-82
2023/04/06 05:33:22;;;;;;;;;;;-2.90;99.90;;;;;;8219123;28;19929;-81
2023/04/06 05:37:22;;;;;;;;;;;-2.80;99.90;;;;;;8221443;28;20613;-81
2023/04/06 05:41:23;;;;;;;;;;;-2.60;99.90;;;;;;8221940;28;19921;-81
2023/04/06 05:45:23;;;;;;;;;;;-2.20;99.90;;;;;;8224240;28;19910;-81
2023/04/06 05:49:23;;;;;;;;;;;-1.80;99.90;;;;;;8222753;28;19968;-84
2023/04/06 05:53:26;;;;;;;;;;;-1.60;99.90;;;;;;8218428;28;19906;-84
2023/04/06 05:57:26;;;;;;;;;;;-1.50;99.90;;;;;;8217770;28;19989;-84
2023/04/06 06:01:27;;;;;;;;;;;-1.30;99.90;;;;;;8222950;28;19919;-84
2023/04/06 06:05:28;;;;;;;;;;;-1.20;99.90;;;;;;8216376;28;20001;-83
2023/04/06 06:09:29;;;;;;;;;;;-1.10;99.90;;;;;;8212804;28;19906;-84
2023/04/06 06:13:29;;;;;;;;;;;-1.00;99.90;;;;;;8213941;28;19977;-83
2023/04/06 06:17:30;;;;;;;;;;;-1.10;99.90;;;;;;8223898;28;20057;-84
2023/04/06 06:21:31;;;;;;;;;;;-1.20;99.90;;;;;;8211856;28;19906;-84
2023/04/06 06:25:31;;;;;;;;;;;-1.10;99.90;;;;;;8207781;28;20291;-82
2023/04/06 06:29:32;;;;;;;;;;;-1.30;99.90;;;;;;8222547;28;19997;-82
2023/04/06 06:33:32;;;;;;;;;;;-1.20;99.90;;;;;;8208077;28;20506;-82
2023/04/06 06:37:33;;;;;;;;;;;-1.10;99.90;;;;;;8217734;28;19914;-82
2023/04/06 06:41:33;;;;;;;;;;;-1.00;99.90;;;;;;8217866;28;19959;-83
2023/04/06 06:45:34;;;;;;;;;;;-0.70;99.90;;;;;;8226478;28;19957;-82
2023/04/06 06:49:35;;;;;;;;;;;-0.40;99.90;;;;;;8224995;28;19960;-82
2023/04/06 06:53:35;;;;;;;;;;;0.00;99.90;;;;;;8220005;28;19918;-82
2023/04/06 06:57:35;;;;;;;;;;;0.20;99.90;;;;;;8220318;28;19929;-82
2023/04/06 07:01:36;;;;;;;;;;;0.30;99.90;;;;;;8223659;28;19917;-80
2023/04/06 07:05:37;;;;;;;;;;;0.60;99.90;;;;;;8219062;28;20001;-80
2023/04/06 07:09:37;;;;;;;;;;;0.70;99.90;;;;;;8211879;28;19961;-79
2023/04/06 07:13:37;;;;;;;;;;;1.30;99.90;;;;;;8217204;28;19917;-79
2023/04/06 07:17:38;;;;;;;;;;;1.60;99.90;;;;;;8216981;28;19918;-79
2023/04/06 07:21:38;;;;;;;;;;;1.60;99.90;;;;;;8212834;28;19917;-79
2023/04/06 07:25:46;;;;;;;;;;;1.90;99.90;;;;;;8217459;28;19910;-79
2023/04/06 07:29:47;;;;;;;;;;;2.30;99.90;;;;;;8214301;28;19913;-79
2023/04/06 07:33:47;;;;;;;;;;;2.80;99.90;;;;;;8218815;28;20279;-80
2023/04/06 07:37:48;;;;;;;;;;;3.20;99.90;;;;;;8215459;28;19914;-79
2023/04/06 07:41:51;;;;;;;;;;;3.50;99.90;;;;;;8216955;28;19917;-79
2023/04/06 07:45:51;;;;;;;;;;;3.60;99.90;;;;;;8212182;28;19913;-79
2023/04/06 07:49:55;;;;;;;;;;;4.20;99.90;;;;;;8215019;28;19995;-78
2023/04/06 07:53:56;;;;;;;;;;;4.60;99.90;;;;;;8215852;28;20010;-78
2023/04/06 07:57:56;;;;;;;;;;;4.80;99.90;;;;;;8216077;28;20408;-81
2023/04/06 08:01:57;;;;;;;;;;;4.90;99.90;;;;;;8217881;28;19924;-81
2023/04/06 08:05:57;;;;;;;;;;;5.80;99.90;;;;;;8214489;28;19921;-81
2023/04/06 08:09:57;;;;;;;;;;;6.60;99.90;;;;;;8218595;28;19910;-80
2023/04/06 08:13:58;;;;;;;;;;;7.50;99.90;;;;;;8212657;28;19917;-79
2023/04/06 08:17:58;;;;;;;;;;;8.20;99.90;;;;;;8215375;28;19918;-78
2023/04/06 08:21:59;;;;;;;;;;;8.20;99.90;;;;;;8212912;28;19914;-78
2023/04/06 08:25:59;;;;;;;;;;;8.60;99.90;;;;;;8212534;28;19906;-78
2023/04/06 08:30:00;;;;;;;;;;;8.50;99.90;;;;;;8213755;28;19956;-78
2023/04/06 08:34:01;;;;;;;;;;;8.60;99.90;;;;;;8219162;28;19913;-78
2023/04/06 08:38:02;;;;;;;;;;;9.00;99.90;;;;;;8221789;28;19944;-78
2023/04/06 08:42:02;;;;;;;;;;;9.30;99.90;;;;;;8215958;28;20020;-78
2023/04/06 08:46:03;;;;;;;;;;;9.90;99.90;;;;;;8208501;28;19917;-78
2023/04/06 08:50:03;;;;;;;;;;;10.40;99.50;;;;;;8206543;28;20005;-78
2023/04/06 08:54:04;;;;;;;;;;;10.70;99.90;;;;;;8204002;28;19911;-79
2023/04/06 08:58:06;;;;;;;;;;;11.10;99.70;;;;;;8208645;28;19914;-78
2023/04/06 09:02:11;;;;;;;;;;;11.30;95.00;;;;;;8203624;28;19917;-78
2023/04/06 09:06:12;;;;;;;;;;;11.30;97.20;;;;;;8203735;28;19933;-79
2023/04/06 09:10:13;;;;;;;;;;;11.50;99.00;;;;;;8208929;28;20005;-79
2023/04/06 09:14:15;;;;;;;;;;;11.50;94.80;;;;;;8202678;28;19926;-79
2023/04/06 09:18:27;;;;;;;;;;;11.60;95.90;;;;;;8201120;28;19914;-79
2023/04/06 09:22:37;;;;;;;;;;;11.70;97.70;;;;;;8201949;28;19906;-79
2023/04/06 09:26:45;;;;;;;;;;;11.60;94.70;;;;;;8203685;28;19910;-78
2023/04/06 09:30:49;;;;;;;;;;;11.70;94.00;;;;;;8210458;28;19917;-78
2023/04/06 09:34:50;;;;;;;;;;;11.70;96.20;;;;;;8212371;28;19906;-79
2023/04/06 09:38:57;;;;;;;;;;;11.70;91.90;;;;;;8209795;28;20017;-78
2023/04/06 09:42:59;;;;;;;;;;;11.70;92.80;;;;;;8206887;28;19914;-78
2023/04/06 09:47:00;;;;;;;;;;;11.70;89.10;;;;;;8199401;28;20037;-78
2023/04/06 09:51:04;;;;;;;;;;;12.00;95.00;;;;;;8201780;28;19926;-79
2023/04/06 09:55:05;;;;;;;;;;;11.70;94.70;;;;;;8201678;28;20005;-79
2023/04/06 09:59:09;;;;;;;;;;;11.70;95.50;;;;;;8201551;28;19953;-78
2023/04/06 10:03:25;;;;;;;;;;;11.90;92.40;;;;;;8214394;28;19914;-79
2023/04/06 10:07:26;;;;;;;;;;;12.50;90.70;;;;;;8228511;28;19924;-79
2023/04/06 10:11:26;;;;;;;;;;;13.10;88.80;;;;;;8207700;28;19912;-78
2023/04/06 10:15:28;;;;;;;;;;;13.20;90.60;;;;;;8212446;28;19914;-79
2023/04/06 10:19:32;;;;;;;;;;;13.80;92.20;;;;;;8208138;28;19911;-79
2023/04/06 10:23:37;;;;;;;;;;;14.00;82.90;;;;;;8214178;28;19960;-79
2023/04/06 10:27:37;;;;;;;;;;;14.00;90.70;;;;;;8218639;28;19910;-79
2023/04/06 10:31:39;;;;;;;;;;;14.40;83.10;;;;;;8213627;28;20291;-79
2023/04/06 10:35:40;;;;;;;;;;;14.70;83.30;;;;;;8211773;28;19921;-78
2023/04/06 10:39:54;;;;;;;;;;;15.00;78.50;;;;;;8221403;28;20387;-78
2023/04/06 10:43:56;;;;;;;;;;;15.30;81.80;;;;;;8216627;28;19917;-79
2023/04/06 10:47:57;;;;;;;;;;;15.40;74.40;;;;;;8218726;28;19997;-79
2023/04/06 10:51:58;;;;;;;;;;;15.40;80.10;;;;;;8216748;28;19917;-78
2023/04/06 10:55:59;;;;;;;;;;;15.60;71.00;;;;;;8221290;28;19914;-80
2023/04/06 11:00:00;;;;;;;;;;;15.40;72.30;;;;;;8222610;28;20406;-80
2023/04/06 11:04:00;;;;;;;;;;;16.30;70.10;;;;;;8213218;28;19914;-80
2023/04/06 11:08:01;;;;;;;;;;;16.50;67.20;;;;;;8218964;28;19949;-80
2023/04/06 11:12:01;;;;;;;;;;;17.00;69.20;;;;;;8217288;28;19913;-80
2023/04/06 11:16:02;;;;;;;;;;;17.30;70.20;;;;;;8216926;28;19969;-79
2023/04/06 11:20:04;;;;;;;;;;;17.00;68.40;;;;;;8236252;28;19946;-79
2023/04/06 11:24:04;;;;;;;;;;;17.40;62.80;;;;;;8216650;28;19992;-78
2023/04/06 11:28:05;;;;;;;;;;;16.30;66.80;;;;;;8217699;28;19910;-78
2023/04/06 11:32:06;;;;;;;;;;;16.70;62.70;;;;;;8216920;28;19910;-78
2023/04/06 11:36:06;;;;;;;;;;;17.40;60.60;;;;;;8215060;28;19910;-79
2023/04/06 11:40:07;;;;;;;;;;;18.30;59.70;;;;;;8215868;28;19906;-79
2023/04/06 11:44:08;;;;;;;;;;;17.30;63.30;;;;;;8219485;28;19910;-79
2023/04/06 11:48:17;;;;;;;;;;;17.60;62.30;;;;;;8215388;28;19936;-79
2023/04/06 11:52:19;;;;;;;;;;;18.50;63.20;;;;;;8217787;28;20255;-79
2023/04/06 11:56:26;;;;;;;;;;;16.80;63.50;;;;;;8215528;28;19932;-79
2023/04/06 12:00:28;;;;;;;;;;;17.10;64.40;;;;;;8216658;28;19906;-81
2023/04/06 12:04:29;;;;;;;;;;;17.40;58.30;;;;;;8219396;28;19910;-79
2023/04/06 12:08:32;;;;;;;;;;;16.80;69.10;;;;;;8219603;28;19906;-78
2023/04/06 12:12:32;;;;;;;;;;;16.50;65.40;;;;;;8215478;28;19910;-77
2023/04/06 12:16:34;;;;;;;;;;;17.40;59.80;;;;;;8217763;28;20017;-78
2023/04/06 12:20:34;;;;;;;;;;;15.60;61.90;;;;;;8215881;28;19921;-78
2023/04/06 12:24:34;;;;;;;;;;;15.60;60.50;;;;;;8216455;28;19970;-78
2023/04/06 12:28:35;;;;;;;;;;;14.80;63.60;;;;;;8215052;28;19913;-78
2023/04/06 12:32:35;;;;;;;;;;;14.30;65.80;;;;;;8218829;28;19944;-78
2023/04/06 12:36:36;;;;;;;;;;;15.20;63.30;;;;;;8211194;28;19924;-78
2023/04/06 12:40:38;;;;;;;;;;;14.60;65.00;;;;;;8216634;28;19906;-79
2023/04/06 12:44:38;;;;;;;;;;;13.80;66.10;;;;;;8216154;28;19921;-79
2023/04/06 12:48:39;;;;;;;;;;;14.30;64.60;;;;;;8210211;28;20421;-79
2023/04/06 12:52:39;;;;;;;;;;;16.50;61.30;;;;;;8209905;28;19918;-79
2023/04/06 12:56:40;;;;;;;;;;;19.00;59.70;;;;;;8229980;28;20355;-78
2023/04/06 13:00:41;;;;;;;;;;;19.90;58.00;;;;;;8232994;28;19910;-79
2023/04/06 13:04:42;;;;;;;;;;;19.20;53.80;;;;;;8220720;28;19910;-79
2023/04/06 13:08:42;;;;;;;;;;;17.10;57.60;;;;;;8214626;28;19906;-79
2023/04/06 13:12:43;;;;;;;;;;;16.40;59.60;;;;;;8214078;28;19918;-78
2023/04/06 13:16:43;;;;;;;;;;;17.60;62.90;;;;;;8214022;28;19918;-78
2023/04/06 13:20:44;;;;;;;;;;;20.00;53.60;;;;;;8213152;28;19917;-78
2023/04/06 13:24:45;;;;;;;;;;;19.00;51.60;;;;;;8214640;28;19911;-78
2023/04/06 13:28:45;;;;;;;;;;;16.60;55.40;;;;;;8214276;28;19906;-79
2023/04/06 13:32:45;;;;;;;;;;;16.60;58.60;;;;;;8213366;28;20370;-78
2023/04/06 13:36:46;;;;;;;;;;;16.20;59.30;;;;;;8214838;28;19961;-78
2023/04/06 13:40:46;;;;;;;;;;;17.40;57.30;;;;;;8209335;28;19910;-78
2023/04/06 13:44:47;;;;;;;;;;;20.10;51.70;;;;;;8209037;28;19906;-78
2023/04/06 13:48:47;;;;;;;;;;;21.60;48.40;;;;;;8215664;28;19914;-78
2023/04/06 13:52:49;;;;;;;;;;;21.40;48.40;;;;;;8220013;28;19993;-78
2023/04/06 13:56:51;;;;;;;;;;;21.50;47.60;;;;;;8219096;28;19958;-78
2023/04/06 14:00:52;;;;;;;;;;;20.60;45.90;;;;;;8218833;28;20275;-78
2023/04/06 14:04:53;;;;;;;;;;;18.20;50.60;;;;;;8217168;28;19910;-78
2023/04/06 14:08:54;;;;;;;;;;;18.60;51.80;;;;;;8216130;28;20482;-79
2023/04/06 14:12:55;;;;;;;;;;;21.90;46.50;;;;;;8218037;28;19910;-78
2023/04/06 14:16:55;;;;;;;;;;;22.40;45.00;;;;;;8216073;28;19906;-79
2023/04/06 14:20:57;;;;;;;;;;;22.30;46.20;;;;;;8216321;28;19910;-78
2023/04/06 14:24:57;;;;;;;;;;;22.10;43.00;;;;;;8218487;28;19910;-78
2023/04/06 14:28:58;;;;;;;;;;;22.40;41.50;;;;;;8218635;28;20343;-78
2023/04/06 14:32:59;;;;;;;;;;;21.80;44.50;;;;;;8216133;28;19953;-78
2023/04/06 14:36:59;;;;;;;;;;;22.00;42.20;;;;;;8223351;28;20378;-78
2023/04/06 14:41:00;;;;;;;;;;;21.60;41.10;;;;;;8220105;28;19921;-78
2023/04/06 14:45:00;;;;;;;;;;;20.60;42.40;;;;;;8224771;28;19914;-77
2023/04/06 14:49:01;;;;;;;;;;;21.30;43.10;;;;;;8219385;28;19914;-78
2023/04/06 14:53:01;;;;;;;;;;;21.70;43.10;;;;;;8221714;28;19969;-78
2023/04/06 14:57:02;;;;;;;;;;;21.00;42.70;;;;;;8216794;28;20004;-78
2023/04/06 15:01:02;;;;;;;;;;;20.70;45.10;;;;;;8209601;28;19918;-78
2023/04/06 15:05:05;;;;;;;;;;;20.00;44.90;;;;;;8218095;28;19971;-78
2023/04/06 15:09:05;;;;;;;;;;;19.80;46.20;;;;;;8219114;28;19914;-78
2023/04/06 15:13:05;;;;;;;;;;;19.00;45.20;;;;;;8216671;28;19914;-78
2023/04/06 15:17:06;;;;;;;;;;;17.70;51.00;;;;;;8214983;28;19913;-77
2023/04/06 15:21:07;;;;;;;;;;;16.60;50.90;;;;;;8214161;28;19909;-78
2023/04/06 15:25:07;;;;;;;;;;;15.80;51.30;;;;;;8213146;28;20298;-77
2023/04/06 15:29:08;;;;;;;;;;;14.90;56.40;;;;;;8213537;28;19914;-78
2023/04/06 15:33:08;;;;;;;;;;;14.50;56.20;;;;;;8214140;28;19913;-77
2023/04/06 15:37:09;;;;;;;;;;;13.80;60.70;;;;;;8209502;28;19968;-77
2023/04/06 15:41:10;;;;;;;;;;;14.00;57.90;;;;;;8207607;28;19910;-77
2023/04/06 15:45:11;;;;;;;;;;;13.80;57.60;;;;;;8222620;28;19913;-78
2023/04/06 15:49:11;;;;;;;;;;;13.30;57.20;;;;;;8221281;28;20398;-77
2023/04/06 15:53:11;;;;;;;;;;;13.10;59.40;;;;;;8206933;28;19961;-78
2023/04/06 15:57:13;;;;;;;;;;;12.80;60.10;;;;;;8209699;28;19945;-77
2023/04/06 16:01:15;;;;;;;;;;;12.60;59.50;;;;;;8208644;28;20329;-78
2023/04/06 16:05:15;;;;;;;;;;;12.50;59.50;;;;;;8213367;28;19914;-77
2023/04/06 16:09:16;;;;;;;;;;;12.60;59.90;;;;;;8208147;28;19914;-77
2023/04/06 16:13:16;;;;;;;;;;;12.20;62.40;;;;;;8219076;28;20287;-77
2023/04/06 16:17:17;;;;;;;;;;;12.20;63.20;;;;;;8219690;28;20268;-77
2023/04/06 16:21:17;;;;;;;;;;;12.10;64.50;;;;;;8222045;28;19969;-77
2023/04/06 16:25:18;;;;;;;;;;;12.00;65.50;;;;;;8217423;28;19922;-77
2023/04/06 16:29:18;;;;;;;;;;;11.80;67.20;;;;;;8217676;28;20350;-77
2023/04/06 16:33:19;;;;;;;;;;;11.80;65.90;;;;;;8220758;28;20374;-77
2023/04/06 16:37:20;;;;;;;;;;;11.70;67.20;;;;;;8219475;28;19910;-77
2023/04/06 16:41:21;;;;;;;;;;;11.40;68.10;;;;;;8199393;28;21055;-77
2023/04/06 16:45:22;;;;;;;;;;;11.20;68.80;;;;;;8210404;28;19953;-78
2023/04/06 16:49:23;;;;;;;;;;;11.20;67.40;;;;;;8211451;28;19914;-77
2023/04/06 16:53:23;;;;;;;;;;;11.10;69.60;;;;;;8206681;28;19918;-78
2023/04/06 16:57:28;;;;;;;;;;;11.00;69.50;;;;;;8205984;28;19918;-78
2023/04/06 17:01:29;;;;;;;;;;;10.80;70.40;;;;;;8211578;28;19918;-78
2023/04/06 17:05:30;;;;;;;;;;;10.80;71.90;;;;;;8209243;28;19917;-78
2023/04/06 17:09:31;;;;;;;;;;;10.60;74.90;;;;;;8217673;28;20297;-79
2023/04/06 17:13:32;;;;;;;;;;;10.40;79.00;;;;;;8216702;28;19910;-78
2023/04/06 17:17:32;;;;;;;;;;;10.20;79.40;;;;;;8211929;28;19918;-78
2023/04/06 17:21:33;;;;;;;;;;;10.10;80.20;;;;;;8216064;28;19916;-78
2023/04/06 17:25:33;;;;;;;;;;;10.10;80.50;;;;;;8218980;28;19921;-78
2023/04/06 17:29:35;;;;;;;;;;;10.10;76.50;;;;;;8217658;28;20445;-77
2023/04/06 17:33:36;;;;;;;;;;;9.80;81.50;;;;;;8208485;28;19914;-84
2023/04/06 17:37:36;;;;;;;;;;;9.60;81.00;;;;;;8208235;28;19917;-83
2023/04/06 17:41:37;;;;;;;;;;;9.40;81.80;;;;;;8212041;28;20443;-83
2023/04/06 17:45:38;;;;;;;;;;;9.10;85.00;;;;;;8205365;28;19954;-83
2023/04/06 17:49:38;;;;;;;;;;;9.00;89.60;;;;;;8214840;28;19961;-83
2023/04/06 17:53:39;;;;;;;;;;;8.80;91.10;;;;;;8211447;28;20126;-78
2023/04/06 17:57:42;;;;;;;;;;;8.70;90.30;;;;;;8210779;28;20438;-75
2023/04/06 18:01:42;;;;;;;;;;;8.60;91.10;;;;;;8213471;28;19954;-76
2023/04/06 18:05:42;;;;;;;;;;;8.40;93.10;;;;;;8207765;28;20368;-76
2023/04/06 18:09:43;;;;;;;;;;;8.20;95.40;;;;;;8204241;28;19949;-76
2023/04/06 18:13:44;;;;;;;;;;;8.10;93.80;;;;;;8213083;28;19957;-75
2023/04/06 18:17:45;;;;;;;;;;;8.10;93.90;;;;;;8209988;28;19918;-77
2023/04/06 18:21:45;;;;;;;;;;;8.20;93.50;;;;;;8206610;28;19917;-76
2023/04/06 18:25:46;;;;;;;;;;;8.10;93.30;;;;;;8210368;28;19914;-75
2023/04/06 18:29:46;;;;;;;;;;;7.90;95.30;;;;;;8216339;28;20395;-76
2023/04/06 18:33:47;;;;;;;;;;;7.80;96.20;;;;;;8214133;28;20306;-76
2023/04/06 18:37:47;;;;;;;;;;;7.60;96.70;;;;;;8226872;28;20414;-76
2023/04/06 18:41:48;;;;;;;;;;;7.60;97.30;;;;;;8211118;28;19910;-76
2023/04/06 18:45:48;;;;;;;;;;;7.50;97.70;;;;;;8210440;28;20282;-76
2023/04/06 18:49:49;;;;;;;;;;;7.50;96.70;;;;;;8209973;28;19946;-76
2023/04/06 18:53:49;;;;;;;;;;;7.60;95.70;;;;;;8210729;28;20453;-75
2023/04/06 18:57:50;;;;;;;;;;;7.50;96.40;;;;;;8213742;28;19925;-76
2023/04/06 19:01:52;;;;;;;;;;;7.60;96.30;;;;;;8212521;28;19925;-76
2023/04/06 19:05:53;;;;;;;;;;;7.80;95.30;;;;;;8215675;28;19945;-77
2023/04/06 19:09:53;;;;;;;;;;;7.90;95.40;;;;;;8220657;28;20364;-75
2023/04/06 19:13:54;;;;;;;;;;;7.90;94.30;;;;;;8221576;28;20383;-76
2023/04/06 19:17:55;;;;;;;;;;;7.90;93.50;;;;;;8218001;28;20370;-76
2023/04/06 19:21:56;;;;;;;;;;;7.90;94.40;;;;;;8221638;28;19957;-76
2023/04/06 19:25:56;;;;;;;;;;;8.30;93.00;;;;;;8220832;28;19925;-75
2023/04/06 19:29:58;;;;;;;;;;;8.30;93.30;;;;;;8216467;28;19910;-76
2023/04/06 19:33:58;;;;;;;;;;;8.30;92.30;;;;;;8223724;28;19969;-75
2023/04/06 19:37:59;;;;;;;;;;;8.30;93.10;;;;;;8220858;28;19957;-76
2023/04/06 19:41:59;;;;;;;;;;;8.30;93.20;;;;;;8216141;28;19911;-76
2023/04/06 19:46:00;;;;;;;;;;;8.30;92.90;;;;;;8199536;28;19942;-78
2023/04/06 19:50:01;;;;;;;;;;;8.30;92.80;;;;;;8208403;28;20295;-76
2023/04/06 19:54:03;;;;;;;;;;;8.30;92.60;;;;;;8203087;28;19938;-77
2023/04/06 19:58:04;;;;;;;;;;;8.40;93.50;;;;;;8203016;28;20299;-76
2023/04/06 20:02:06;;;;;;;;;;;8.20;92.70;;;;;;8209894;28;19961;-76
2023/04/06 20:06:07;;;;;;;;;;;8.10;92.00;;;;;;8224021;28;19914;-76
2023/04/06 20:10:07;;;;;;;;;;;8.00;94.40;;;;;;8209434;28;20423;-76
2023/04/06 20:14:08;;;;;;;;;;;8.00;93.10;;;;;;8208917;28;20499;-76
2023/04/06 20:18:08;;;;;;;;;;;7.90;93.90;;;;;;8210515;28;19921;-76
2023/04/06 20:22:09;;;;;;;;;;;7.80;94.20;;;;;;8213418;28;19956;-76
2023/04/06 20:26:09;;;;;;;;;;;8.30;91.70;;;;;;8214746;28;19921;-76
2023/04/06 20:30:11;;;;;;;;;;;8.20;90.50;;;;;;8211110;28;19962;-76
2023/04/06 20:34:12;;;;;;;;;;;8.20;91.30;;;;;;8216134;28;19907;-77
2023/04/06 20:38:13;;;;;;;;;;;8.30;90.40;;;;;;8217431;28;19910;-75
2023/04/06 20:42:13;;;;;;;;;;;8.30;90.50;;;;;;8219300;28;19910;-77
2023/04/06 20:46:15;;;;;;;;;;;8.40;91.00;;;;;;8207294;28;19922;-76
2023/04/06 20:50:15;;;;;;;;;;;8.30;91.10;;;;;;8211719;28;19915;-76
2023/04/06 20:54:16;;;;;;;;;;;8.00;91.40;;;;;;8201531;28;19913;-76
2023/04/06 20:58:19;;;;;;;;;;;7.90;92.70;;;;;;8214377;28;20294;-76
2023/04/06 21:02:20;;;;;;;;;;;7.90;93.80;;;;;;8206738;28;20004;-76
2023/04/06 21:06:20;;;;;;;;;;;7.70;93.60;;;;;;8224973;28;19910;-76
2023/04/06 21:10:22;;;;;;;;;;;7.70;95.20;;;;;;8216530;28;19934;-77
2023/04/06 21:14:23;;;;;;;;;;;7.40;98.80;;;;;;8215526;28;20297;-76
2023/04/06 21:18:23;;;;;;;;;;;7.20;97.50;;;;;;8222193;28;19926;-76
2023/04/06 21:22:24;;;;;;;;;;;7.50;95.20;;;;;;8222859;28;19948;-77
2023/04/06 21:26:25;;;;;;;;;;;7.60;94.40;;;;;;8217938;28;20276;-76
2023/04/06 21:30:25;;;;;;;;;;;7.40;94.30;;;;;;8216412;28;19906;-76
2023/04/06 21:34:25;;;;;;;;;;;7.30;95.00;;;;;;8215889;28;19906;-76
2023/04/06 21:38:26;;;;;;;;;;;7.20;96.30;;;;;;8216653;28;19914;-76
2023/04/06 21:42:26;;;;;;;;;;;7.30;93.30;;;;;;8214616;28;19992;-76
2023/04/06 21:46:27;;;;;;;;;;;7.50;93.90;;;;;;8208001;28;20406;-76
2023/04/06 21:50:28;;;;;;;;;;;7.70;92.80;;;;;;8201657;28;20375;-76
2023/04/06 21:54:32;;;;;;;;;;;7.60;94.30;;;;;;8205894;28;20566;-77
2023/04/06 21:58:33;;;;;;;;;;;7.50;94.30;;;;;;8207319;28;19907;-76
2023/04/06 22:02:33;;;;;;;;;;;7.30;94.50;;;;;;8205009;28;20488;-76
2023/04/06 22:06:35;;;;;;;;;;;7.40;94.50;;;;;;8202829;28;20394;-76
2023/04/06 22:10:37;;;;;;;;;;;7.50;95.00;;;;;;8214267;28;19910;-76
2023/04/06 22:14:37;;;;;;;;;;;7.50;94.50;;;;;;8221687;28;19918;-76
2023/04/06 22:18:37;;;;;;;;;;;7.70;93.90;;;;;;8207477;28;19981;-75
2023/04/06 22:22:38;;;;;;;;;;;7.90;94.30;;;;;;8210769;28;20275;-76
2023/04/06 22:26:38;;;;;;;;;;;7.60;94.80;;;;;;8218696;28;20422;-76
2023/04/06 22:30:39;;;;;;;;;;;7.70;94.60;;;;;;8208259;28;20349;-77
2023/04/06 22:34:39;;;;;;;;;;;7.70;95.80;;;;;;8225492;28;19956;-77
2023/04/06 22:38:40;;;;;;;;;;;7.70;94.70;;;;;;8217099;28;19906;-75
2023/04/06 22:42:40;;;;;;;;;;;7.50;96.40;;;;;;8215874;28;20005;-76
2023/04/06 22:46:41;;;;;;;;;;;7.60;97.20;;;;;;8209627;28;19913;-76
2023/04/06 22:50:41;;;;;;;;;;;7.20;99.70;;;;;;8212229;28;20006;-76
2023/04/06 22:54:42;;;;;;;;;;;6.90;99.90;;;;;;8213068;28;19907;-77
2023/04/06 22:58:42;;;;;;;;;;;6.80;99.90;;;;;;8213242;28;19916;-75
2023/04/06 23:02:43;;;;;;;;;;;6.80;99.90;;;;;;8215735;28;20405;-77
2023/04/06 23:06:43;;;;;;;;;;;6.60;99.90;;;;;;8223067;28;19910;-77
2023/04/06 23:10:44;;;;;;;;;;;6.70;99.90;;;;;;8216842;28;19914;-75
2023/04/06 23:14:44;;;;;;;;;;;6.60;99.90;;;;;;8218520;28;20009;-76
2023/04/06 23:18:45;;;;;;;;;;;6.40;99.90;;;;;;8222649;28;19988;-75
2023/04/06 23:22:45;;;;;;;;;;;6.10;99.90;;;;;;8218881;28;19912;-75
2023/04/06 23:26:46;;;;;;;;;;;6.00;99.90;;;;;;8212381;28;19914;-75